createdAt,value
2019-01-11T00:02:01.308Z,69.70
2019-01-11T00:04:30.288Z,69.60
2019-01-11T00:06:59.347Z,69.60
2019-01-11T00:09:28.415Z,69.70
2019-01-11T00:11:57.382Z,69.70
2019-01-11T00:14:26.344Z,69.90
2019-01-11T00:16:55.649Z,69.80
2019-01-11T00:19:24.834Z,70.10
2019-01-11T00:21:54.026Z,70.00
2019-01-11T00:24:23.103Z,70.10
2019-01-11T00:26:52.146Z,70.10
2019-01-11T00:29:21.162Z,70.20
2019-01-11T00:31:50.242Z,70.40
2019-01-11T00:34:19.416Z,70.50
2019-01-11T00:36:48.512Z,70.40
2019-01-11T00:39:17.826Z,70.80
2019-01-11T00:41:46.838Z,71.00
2019-01-11T00:44:15.839Z,70.90
2019-01-11T00:46:45.486Z,71.20
2019-01-11T00:49:14.710Z,71.00
2019-01-11T00:51:43.862Z,70.90
2019-01-11T00:54:12.939Z,71.10
2019-01-11T00:56:42.107Z,71.00
2019-01-11T00:59:11.230Z,71.00
2019-01-11T01:01:40.983Z,71.10
2019-01-11T01:04:10.042Z,71.10
2019-01-11T01:06:39.091Z,71.10
2019-01-11T01:09:09.115Z,71.10
2019-01-11T01:11:38.719Z,71.20
2019-01-11T01:14:08.206Z,71.30
2019-01-11T01:16:37.821Z,71.20
2019-01-11T01:19:07.001Z,71.30
2019-01-11T01:21:36.019Z,71.20
2019-01-11T01:24:05.046Z,71.20
2019-01-11T01:26:34.046Z,71.20
2019-01-11T01:29:03.086Z,71.30
2019-01-11T01:31:32.181Z,71.30
2019-01-11T01:34:01.198Z,71.40
2019-01-11T01:36:30.266Z,71.40
2019-01-11T01:38:59.655Z,71.30
2019-01-11T01:41:28.757Z,71.40
2019-01-11T01:43:57.754Z,71.50
2019-01-11T01:46:27.163Z,71.50
2019-01-11T01:48:57.464Z,71.40
2019-01-11T01:51:26.498Z,71.50
2019-01-11T01:53:55.792Z,71.50
2019-01-11T01:56:24.941Z,71.70
2019-01-11T01:58:53.917Z,71.50
2019-01-11T02:01:23.265Z,71.60
2019-01-11T02:03:52.359Z,71.60
2019-01-11T02:06:21.442Z,71.70
2019-01-11T02:08:50.866Z,71.70
2019-01-11T02:11:20.242Z,71.70
2019-01-11T02:13:49.980Z,71.70
2019-01-11T02:16:19.261Z,71.70
2019-01-11T02:18:48.337Z,72.40
2019-01-11T02:21:17.438Z,71.80
2019-01-11T02:23:46.526Z,71.70
2019-01-11T02:26:15.569Z,71.70
2019-01-11T02:28:44.541Z,71.80
2019-01-11T02:31:13.696Z,71.70
2019-01-11T02:33:42.747Z,71.80
2019-01-11T02:36:11.794Z,71.80
2019-01-11T02:38:41.110Z,71.90
2019-01-11T02:41:10.169Z,71.80
2019-01-11T02:43:39.228Z,71.80
2019-01-11T02:46:08.759Z,71.90
2019-01-11T02:48:37.827Z,71.80
2019-01-11T02:51:06.870Z,72.00
2019-01-11T02:53:36.010Z,71.90
2019-01-11T02:56:05.002Z,72.00
2019-01-11T02:58:34.043Z,72.10
2019-01-11T03:01:03.916Z,71.80
2019-01-11T03:03:32.933Z,71.70
2019-01-11T03:06:01.970Z,71.70
2019-01-11T03:08:31.476Z,71.70
2019-01-11T03:11:00.942Z,71.90
2019-01-11T03:13:30.530Z,72.00
2019-01-11T03:15:59.580Z,72.10
2019-01-11T03:18:28.674Z,72.10
2019-01-11T03:20:57.803Z,72.20
2019-01-11T03:23:26.925Z,72.30
2019-01-11T03:25:56.030Z,72.20
2019-01-11T03:28:25.104Z,72.10
2019-01-11T03:30:54.417Z,72.20
2019-01-11T03:33:23.543Z,72.20
2019-01-11T03:35:52.910Z,72.30
2019-01-11T03:38:22.750Z,72.30
2019-01-11T03:40:51.811Z,72.30
2019-01-11T03:43:21.354Z,72.30
2019-01-11T03:45:50.866Z,72.30
2019-01-11T03:48:19.854Z,72.50
2019-01-11T03:50:48.962Z,72.40
2019-01-11T03:53:18.660Z,72.40
2019-01-11T03:55:47.634Z,72.30
2019-01-11T03:58:16.933Z,72.40
2019-01-11T04:00:46.065Z,72.40
2019-01-11T04:03:15.131Z,72.50
2019-01-11T04:05:44.210Z,72.50
2019-01-11T04:08:13.291Z,72.50
2019-01-11T04:10:42.425Z,72.50
2019-01-11T04:13:11.681Z,72.50
2019-01-11T04:15:42.651Z,72.70
2019-01-11T04:18:24.742Z,72.70
2019-01-11T04:20:53.841Z,72.70
2019-01-11T04:23:22.914Z,72.70
2019-01-11T04:25:51.896Z,72.60
2019-01-11T04:28:21.460Z,72.70
2019-01-11T04:30:52.328Z,72.70
2019-01-11T04:33:21.312Z,73.40
2019-01-11T04:35:51.198Z,73.00
2019-01-11T04:38:20.256Z,73.00
2019-01-11T04:40:49.310Z,73.80
2019-01-11T04:43:18.776Z,72.70
2019-01-11T04:45:47.833Z,72.70
2019-01-11T04:48:16.893Z,72.70
2019-01-11T04:50:46.377Z,72.70
2019-01-11T04:53:15.430Z,72.60
2019-01-11T04:55:44.409Z,73.40
2019-01-11T04:58:13.419Z,72.70
2019-01-11T05:00:42.570Z,72.60
2019-01-11T05:03:11.481Z,72.80
2019-01-11T05:05:41.226Z,72.70
2019-01-11T05:08:10.185Z,72.80
2019-01-11T05:10:42.266Z,72.80
2019-01-11T05:13:42.606Z,72.70
2019-01-11T05:16:12.084Z,72.70
2019-01-11T05:18:41.766Z,72.60
2019-01-11T05:21:10.799Z,72.60
2019-01-11T05:23:39.834Z,72.50
2019-01-11T05:26:08.870Z,72.50
2019-01-11T05:28:38.207Z,72.60
2019-01-11T05:31:07.277Z,72.60
2019-01-11T05:33:36.347Z,72.50
2019-01-11T05:36:05.902Z,72.40
2019-01-11T05:38:34.876Z,72.50
2019-01-11T05:41:04.002Z,72.50
2019-01-11T05:43:33.689Z,72.50
2019-01-11T05:46:02.743Z,72.50
2019-01-11T05:48:31.941Z,72.30
2019-01-11T05:51:01.237Z,72.20
2019-01-11T05:53:30.291Z,72.30
2019-01-11T05:56:02.419Z,72.20
2019-01-11T05:58:33.239Z,72.00
2019-01-11T06:01:02.320Z,72.00
2019-01-11T06:03:31.374Z,72.00
2019-01-11T06:06:02.534Z,72.20
2019-01-11T06:08:32.688Z,72.10
2019-01-11T06:11:01.676Z,72.10
2019-01-11T06:13:31.086Z,72.20
2019-01-11T06:16:00.274Z,72.30
2019-01-11T06:18:29.450Z,72.10
2019-01-11T06:20:59.642Z,72.10
2019-01-11T06:23:28.906Z,72.20
2019-01-11T06:25:57.962Z,72.90
2019-01-11T06:28:27.217Z,72.30
2019-01-11T06:30:56.487Z,72.30
2019-01-11T06:33:25.595Z,73.00
2019-01-11T06:35:54.709Z,72.30
2019-01-11T06:38:23.886Z,72.40
2019-01-11T06:40:52.918Z,72.30
2019-01-11T06:43:22.197Z,72.40
2019-01-11T06:45:51.312Z,72.50
2019-01-11T06:48:41.687Z,72.30
2019-01-11T06:51:11.158Z,72.40
2019-01-11T06:53:40.223Z,72.60
2019-01-11T06:56:09.225Z,72.70
2019-01-11T06:58:38.349Z,72.60
2019-01-11T07:01:07.408Z,72.60
2019-01-11T07:03:37.072Z,72.60
2019-01-11T07:06:06.081Z,72.60
2019-01-11T07:08:35.125Z,72.40
2019-01-11T07:11:04.657Z,72.40
2019-01-11T07:13:33.855Z,72.50
2019-01-11T07:16:03.338Z,72.40
2019-01-11T07:18:32.458Z,72.40
2019-01-11T07:21:01.630Z,72.60
2019-01-11T07:23:30.658Z,72.50
2019-01-11T07:25:59.726Z,72.60
2019-01-11T07:28:28.852Z,72.50
2019-01-11T07:31:11.892Z,72.50
2019-01-11T07:33:41.228Z,73.20
2019-01-11T07:36:48.059Z,72.40
2019-01-11T07:39:32.908Z,72.40
2019-01-11T07:42:02.388Z,72.60
2019-01-11T07:44:31.444Z,72.40
2019-01-11T07:47:00.420Z,72.30
2019-01-11T07:49:30.191Z,72.30
2019-01-11T07:51:59.289Z,72.40
2019-01-11T07:54:28.356Z,72.30
2019-01-11T07:56:58.737Z,72.30
2019-01-11T07:59:27.823Z,72.40
2019-01-11T08:01:56.880Z,72.40
2019-01-11T08:04:26.283Z,72.30
2019-01-11T08:06:55.290Z,72.40
2019-01-11T08:09:24.463Z,72.30
2019-01-11T08:11:55.581Z,72.30
2019-01-11T08:14:25.012Z,72.50
2019-01-11T08:16:54.502Z,72.50
2019-01-11T08:19:23.489Z,72.50
2019-01-11T08:21:52.504Z,72.50
2019-01-11T08:24:21.574Z,72.70
2019-01-11T08:26:51.081Z,72.70
2019-01-11T08:29:20.145Z,72.80
2019-01-11T08:31:50.308Z,73.10
2019-01-11T08:34:20.627Z,73.10
2019-01-11T08:36:49.670Z,72.90
2019-01-11T08:39:18.633Z,73.30
2019-01-11T08:41:47.865Z,75.50
2019-01-11T08:44:16.893Z,76.20
2019-01-11T08:46:45.863Z,79.10
2019-01-11T08:49:14.997Z,79.90
2019-01-11T08:51:44.110Z,79.70
2019-01-11T08:54:13.145Z,80.20
2019-01-11T08:56:43.012Z,77.10
2019-01-11T08:59:11.993Z,74.40
2019-01-11T09:01:41.175Z,72.60
2019-01-11T09:04:10.807Z,71.80
2019-01-11T09:06:39.849Z,70.30
2019-01-11T09:09:09.691Z,69.50
2019-01-11T09:11:39.035Z,68.80
2019-01-11T09:14:09.653Z,68.60
2019-01-11T09:16:38.842Z,68.30
2019-01-11T09:19:08.839Z,68.30
2019-01-11T09:21:41.625Z,67.60
2019-01-11T09:24:08.541Z,67.20
2019-01-11T09:26:37.604Z,67.10
2019-01-11T09:29:06.597Z,66.90
2019-01-11T09:31:35.590Z,66.60
2019-01-11T09:34:05.630Z,66.80
2019-01-11T09:36:34.699Z,66.80
2019-01-11T09:39:04.971Z,66.50
2019-01-11T09:41:34.292Z,65.70
2019-01-11T09:44:03.586Z,66.20
2019-01-11T09:46:32.771Z,67.00
2019-01-11T09:49:01.961Z,67.50
2019-01-11T09:51:31.007Z,67.70
2019-01-11T09:54:00.645Z,67.70
2019-01-11T09:56:29.994Z,67.50
2019-01-11T09:58:59.053Z,67.50
2019-01-11T10:01:28.103Z,67.40
2019-01-11T10:03:57.785Z,67.00
2019-01-11T10:06:26.763Z,68.00
2019-01-11T10:08:55.815Z,68.10
2019-01-11T10:11:25.267Z,67.90
2019-01-11T10:13:54.241Z,68.10
2019-01-11T10:16:23.796Z,68.20
2019-01-11T10:18:53.538Z,67.90
2019-01-11T10:21:24.018Z,67.90
2019-01-11T10:23:53.235Z,68.00
2019-01-11T10:26:22.342Z,68.00
2019-01-11T10:28:51.985Z,67.60
2019-01-11T10:31:21.035Z,67.60
2019-01-11T10:33:50.338Z,67.80
2019-01-11T10:36:19.321Z,68.00
2019-01-11T10:38:48.387Z,67.70
2019-01-11T10:41:17.725Z,67.90
2019-01-11T10:43:46.774Z,68.10
2019-01-11T10:46:33.475Z,68.50
2019-01-11T10:49:02.539Z,68.80
2019-01-11T10:51:31.506Z,68.70
2019-01-11T10:54:01.066Z,69.00
2019-01-11T10:56:30.109Z,69.10
2019-01-11T10:58:59.229Z,69.00
2019-01-11T11:01:28.659Z,68.20
2019-01-11T11:03:57.701Z,68.90
2019-01-11T11:06:26.753Z,69.20
2019-01-11T11:08:56.251Z,69.50
2019-01-11T11:11:25.298Z,70.20
2019-01-11T11:13:54.355Z,70.80
2019-01-11T11:16:23.475Z,72.20
2019-01-11T11:18:52.664Z,71.70
2019-01-11T11:21:22.021Z,71.20
2019-01-11T11:23:54.074Z,71.20
2019-01-11T11:26:22.162Z,70.80
2019-01-11T11:28:51.207Z,70.30
2019-01-11T11:31:20.284Z,69.80
2019-01-11T11:33:49.330Z,69.90
2019-01-11T11:36:18.311Z,70.10
2019-01-11T11:38:47.715Z,69.60
2019-01-11T11:41:16.754Z,69.30
2019-01-11T11:43:45.790Z,69.60
2019-01-11T11:46:15.131Z,69.80
2019-01-11T11:48:44.191Z,69.50
2019-01-11T11:51:13.295Z,69.10
2019-01-11T11:53:42.356Z,69.40
2019-01-11T11:56:11.329Z,69.60
2019-01-11T11:58:40.369Z,69.60
2019-01-11T12:01:09.906Z,69.20
2019-01-11T12:03:38.959Z,69.50
2019-01-11T12:06:07.952Z,69.60
2019-01-11T12:08:37.397Z,69.80
2019-01-11T12:11:06.443Z,69.60
2019-01-11T12:13:35.494Z,69.30
2019-01-11T12:16:04.555Z,69.60
2019-01-11T12:18:33.776Z,69.60
2019-01-11T12:21:02.751Z,69.50
2019-01-11T12:23:32.415Z,69.60
2019-01-11T12:26:01.463Z,69.80
2019-01-11T12:28:30.540Z,69.30
2019-01-11T12:31:00.173Z,69.80
2019-01-11T12:33:29.279Z,69.90
2019-01-11T12:35:58.380Z,70.00
2019-01-11T12:38:27.667Z,70.10
2019-01-11T12:40:56.734Z,70.20
2019-01-11T12:43:25.786Z,70.10
2019-01-11T12:45:55.342Z,70.00
2019-01-11T12:48:24.314Z,70.30
2019-01-11T12:50:53.369Z,70.60
2019-01-11T12:53:22.427Z,70.70
2019-01-11T12:55:51.511Z,70.40
2019-01-11T12:58:20.734Z,70.60
2019-01-11T13:00:49.802Z,70.70
2019-01-11T13:03:18.851Z,70.80
2019-01-11T13:05:47.903Z,71.20
2019-01-11T13:08:17.127Z,70.30
2019-01-11T13:10:46.166Z,70.50
2019-01-11T13:13:15.221Z,70.40
2019-01-11T13:15:44.554Z,70.60
2019-01-11T13:18:13.671Z,70.70
2019-01-11T13:20:43.382Z,70.90
2019-01-11T13:23:12.423Z,71.30
2019-01-11T13:25:41.466Z,71.30
2019-01-11T13:28:10.426Z,71.20
2019-01-11T13:30:39.759Z,71.30
2019-01-11T13:33:08.752Z,71.40
2019-01-11T13:35:37.857Z,72.50
2019-01-11T13:38:07.094Z,72.30
2019-01-11T13:40:36.182Z,72.10
2019-01-11T13:43:05.142Z,71.90
2019-01-11T13:45:34.934Z,72.60
2019-01-11T13:48:03.915Z,73.10
2019-01-11T13:50:42.965Z,72.90
2019-01-11T13:53:16.855Z,72.80
2019-01-11T13:55:45.949Z,72.60
2019-01-11T13:58:15.006Z,72.70
2019-01-11T14:00:44.047Z,72.70
2019-01-11T14:03:13.104Z,73.30
2019-01-11T14:05:42.265Z,73.10
2019-01-11T14:08:11.322Z,73.00
2019-01-11T14:10:40.373Z,73.00
2019-01-11T14:13:09.697Z,73.10
2019-01-11T14:15:38.671Z,73.20
2019-01-11T14:18:07.991Z,73.60
2019-01-11T14:20:37.566Z,73.70
2019-01-11T14:23:06.627Z,73.20
2019-01-11T14:25:35.698Z,73.50
2019-01-11T14:28:05.717Z,73.20
2019-01-11T14:30:34.783Z,73.50
2019-01-11T14:33:03.886Z,73.70
2019-01-11T14:35:33.116Z,74.20
2019-01-11T14:38:02.091Z,73.80
2019-01-11T14:40:31.156Z,73.60
2019-01-11T14:43:00.536Z,73.50
2019-01-11T14:45:29.631Z,74.00
2019-01-11T14:47:58.685Z,73.90
2019-01-11T14:50:28.490Z,74.20
2019-01-11T14:52:57.463Z,74.20
2019-01-11T14:55:26.542Z,74.80
2019-01-11T14:57:55.630Z,74.90
2019-01-11T15:00:24.783Z,74.90
2019-01-11T15:02:53.773Z,75.00
2019-01-11T15:05:23.506Z,74.70
2019-01-11T15:07:52.585Z,74.40
2019-01-11T15:10:21.742Z,74.70
2019-01-11T15:12:50.766Z,74.60
2019-01-11T15:15:19.802Z,73.80
2019-01-11T15:17:48.790Z,73.90
2019-01-11T15:20:18.805Z,73.80
2019-01-11T15:22:48.844Z,73.60
2019-01-11T15:25:17.885Z,74.20
2019-01-11T15:27:46.906Z,74.10
2019-01-11T15:30:20.235Z,73.60
2019-01-11T15:32:49.322Z,73.50
2019-01-11T15:35:19.461Z,73.60
2019-01-11T15:37:48.503Z,73.80
2019-01-11T15:40:28.582Z,74.20
2019-01-11T15:42:57.779Z,74.10
2019-01-11T15:45:26.814Z,73.70
2019-01-11T15:47:56.443Z,73.50
2019-01-11T15:50:50.449Z,73.50
2019-01-11T15:53:19.669Z,73.80
2019-01-11T15:55:49.697Z,74.60
2019-01-11T15:58:18.669Z,74.90
2019-01-11T16:00:48.815Z,74.90
2019-01-11T16:03:17.929Z,74.90
2019-01-11T16:05:46.991Z,75.20
2019-01-11T16:08:16.627Z,75.20
2019-01-11T16:11:27.052Z,75.80
2019-01-11T16:14:32.449Z,75.80
2019-01-11T16:17:05.709Z,75.90
2019-01-11T16:19:35.309Z,75.60
2019-01-11T16:22:04.281Z,75.40
2019-01-11T16:24:33.382Z,75.50
2019-01-11T16:27:02.620Z,75.70
2019-01-11T16:29:31.714Z,75.50
2019-01-11T16:32:00.866Z,75.80
2019-01-11T16:34:30.295Z,75.20
2019-01-11T16:36:59.330Z,75.00
2019-01-11T16:39:28.370Z,75.00
2019-01-11T16:41:57.982Z,75.10
2019-01-11T16:44:26.938Z,75.10
2019-01-11T16:46:55.910Z,75.60
2019-01-11T16:49:25.107Z,75.70
2019-01-11T16:51:54.334Z,75.80
2019-01-11T16:54:23.374Z,76.10
2019-01-11T16:56:52.371Z,76.00
2019-01-11T16:59:21.414Z,76.10
2019-01-11T17:01:50.383Z,76.90
2019-01-11T17:04:20.055Z,76.60
2019-01-11T17:06:49.059Z,77.00
2019-01-11T17:09:18.206Z,77.40
2019-01-11T17:11:48.042Z,77.30
2019-01-11T17:14:17.077Z,77.50
2019-01-11T17:16:46.128Z,77.60
2019-01-11T17:19:15.113Z,77.80
2019-01-11T17:21:44.963Z,77.80
2019-01-11T17:24:13.994Z,77.90
2019-01-11T17:26:43.121Z,78.20
2019-01-11T17:29:12.175Z,78.50
2019-01-11T17:31:41.146Z,78.30
2019-01-11T17:34:10.711Z,78.60
2019-01-11T17:36:39.676Z,78.60
2019-01-11T17:39:09.339Z,78.50
2019-01-11T17:41:39.214Z,78.40
2019-01-11T17:44:08.195Z,78.60
2019-01-11T17:46:37.241Z,78.50
2019-01-11T17:49:06.806Z,78.10
2019-01-11T17:51:35.846Z,78.60
2019-01-11T17:54:11.258Z,78.60
2019-01-11T17:56:40.396Z,78.40
2019-01-11T17:59:12.514Z,78.60
2019-01-11T18:01:41.587Z,78.60
2019-01-11T18:04:10.769Z,78.50
2019-01-11T18:06:41.110Z,78.40
2019-01-11T18:09:10.099Z,78.40
2019-01-11T18:11:40.082Z,78.30
2019-01-11T18:14:09.360Z,78.60
2019-01-11T18:16:38.457Z,78.80
2019-01-11T18:19:07.527Z,78.70
2019-01-11T18:21:36.883Z,78.70
2019-01-11T18:24:06.335Z,78.90
2019-01-11T18:26:35.421Z,78.70
2019-01-11T18:29:04.499Z,79.00
2019-01-11T18:31:33.563Z,79.00
2019-01-11T18:34:03.602Z,79.40
2019-01-11T18:36:32.825Z,79.20
2019-01-11T18:39:01.851Z,79.20
2019-01-11T18:41:31.101Z,79.30
2019-01-11T18:44:00.159Z,79.00
2019-01-11T18:46:29.259Z,79.00
2019-01-11T18:48:59.102Z,79.20
2019-01-11T18:51:28.188Z,78.80
2019-01-11T18:53:57.243Z,79.20
2019-01-11T18:56:26.310Z,79.10
2019-01-11T18:58:55.350Z,79.20
2019-01-11T19:01:24.620Z,79.30
2019-01-11T19:03:54.321Z,79.10
2019-01-11T19:06:23.512Z,79.40
2019-01-11T19:08:52.648Z,79.60
2019-01-11T19:11:22.531Z,79.50
2019-01-11T19:13:51.570Z,79.80
2019-01-11T19:16:20.562Z,79.50
2019-01-11T19:18:49.706Z,79.70
2019-01-11T19:21:19.255Z,79.70
2019-01-11T19:23:48.434Z,79.90
2019-01-11T19:26:17.662Z,80.00
2019-01-11T19:28:46.751Z,79.70
2019-01-11T19:31:15.739Z,80.00
2019-01-11T19:33:45.162Z,79.80
2019-01-11T19:36:14.215Z,79.90
2019-01-11T19:38:43.236Z,80.10
2019-01-11T19:41:12.368Z,79.90
2019-01-11T19:43:41.431Z,79.90
2019-01-11T19:46:10.575Z,79.70
2019-01-11T19:48:40.198Z,79.60
2019-01-11T19:51:09.234Z,79.90
2019-01-11T19:53:38.358Z,80.00
2019-01-11T19:56:07.424Z,79.90
2019-01-11T19:58:36.539Z,79.90
2019-01-11T20:01:05.634Z,79.90
2019-01-11T20:03:35.322Z,80.10
2019-01-11T20:06:04.376Z,80.10
2019-01-11T20:08:33.703Z,80.20
2019-01-11T20:11:03.487Z,80.20
2019-01-11T20:13:32.489Z,80.30
2019-01-11T20:16:01.585Z,80.30
2019-01-11T20:18:30.631Z,80.30
2019-01-11T20:21:05.318Z,80.40
2019-01-11T20:23:36.999Z,80.40
2019-01-11T20:26:05.727Z,80.40
2019-01-11T20:28:34.918Z,80.60
2019-01-11T20:31:04.155Z,80.50
2019-01-11T20:33:33.243Z,80.50
2019-01-11T20:36:02.302Z,80.60
2019-01-11T20:38:31.955Z,80.80
2019-01-11T20:41:00.999Z,80.70
2019-01-11T20:43:30.083Z,80.70
2019-01-11T20:46:03.407Z,80.70
2019-01-11T20:48:30.980Z,80.80
2019-01-11T20:51:00.025Z,80.90
2019-01-11T20:53:29.117Z,80.90
2019-01-11T20:55:58.438Z,81.00
2019-01-11T20:58:27.495Z,80.80
2019-01-11T21:00:58.310Z,80.80
2019-01-11T21:03:27.590Z,81.00
2019-01-11T21:05:56.564Z,80.80
2019-01-11T21:08:25.665Z,80.90
2019-01-11T21:10:54.716Z,80.90
2019-01-11T21:13:23.765Z,80.90
2019-01-11T21:15:53.492Z,80.90
2019-01-11T21:18:22.459Z,80.90
2019-01-11T21:20:51.543Z,80.70
2019-01-11T21:23:20.682Z,81.20
2019-01-11T21:25:50.399Z,81.00
2019-01-11T21:28:19.470Z,81.40
2019-01-11T21:30:48.660Z,81.50
2019-01-11T21:33:17.713Z,81.70
2019-01-11T21:35:46.779Z,81.40
2019-01-11T21:38:16.488Z,81.30
2019-01-11T21:40:45.471Z,81.30
2019-01-11T21:43:14.574Z,81.10
2019-01-11T21:45:44.180Z,81.00
2019-01-11T21:48:13.245Z,81.00
2019-01-11T21:50:42.431Z,81.30
2019-01-11T21:53:11.426Z,80.80
2019-01-11T21:55:40.399Z,80.80
2019-01-11T21:58:09.375Z,80.70
2019-01-11T22:00:43.462Z,80.70
2019-01-11T22:03:15.319Z,80.80
2019-01-11T22:05:44.367Z,81.40
2019-01-11T22:08:13.575Z,81.00
2019-01-11T22:10:42.658Z,80.90
2019-01-11T22:13:11.726Z,81.20
2019-01-11T22:15:41.391Z,81.40
2019-01-11T22:18:10.479Z,81.60
2019-01-11T22:20:39.622Z,80.50
2019-01-11T22:23:08.782Z,78.60
2019-01-11T22:25:38.635Z,77.20
2019-01-11T22:28:07.850Z,75.80
2019-01-11T22:30:37.086Z,75.40
2019-01-11T22:33:06.114Z,75.00
2019-01-11T22:35:35.155Z,74.00
2019-01-11T22:38:04.290Z,73.20
2019-01-11T22:40:33.362Z,73.20
2019-01-11T22:43:02.382Z,73.20
2019-01-11T22:45:32.042Z,72.60
2019-01-11T22:48:01.008Z,71.50
2019-01-11T22:50:30.095Z,71.60
2019-01-11T22:52:59.175Z,71.60
2019-01-11T22:55:28.148Z,71.70
2019-01-11T22:57:57.186Z,71.10
2019-01-11T23:00:56.826Z,70.90
2019-01-11T23:03:36.170Z,70.60
2019-01-11T23:06:12.271Z,70.70
2019-01-11T23:08:41.252Z,71.30
2019-01-11T23:11:40.898Z,71.30
2019-01-11T23:14:09.872Z,71.50
2019-01-11T23:16:51.762Z,72.20
2019-01-11T23:19:20.744Z,72.50
2019-01-11T23:21:49.774Z,73.30
2019-01-11T23:24:18.775Z,74.00
2019-01-11T23:26:48.371Z,74.20
2019-01-11T23:29:17.421Z,74.70
2019-01-11T23:31:47.310Z,75.00
2019-01-11T23:34:17.086Z,75.30
2019-01-11T23:36:46.051Z,75.60
2019-01-11T23:39:15.606Z,75.80
2019-01-11T23:41:45.761Z,76.10
2019-01-11T23:44:15.070Z,76.20
2019-01-11T23:46:44.226Z,76.30
2019-01-11T23:49:13.271Z,76.30
2019-01-11T23:51:42.293Z,76.60
2019-01-11T23:54:11.366Z,76.90
2019-01-11T23:56:40.397Z,77.30
2019-01-11T23:59:09.362Z,77.60
